Time;durP1;ratioP1;P1;durP2;ratioP2;P2;SDS_P1;SDS_P2;PMS_P1;PMS_P2;Temp;Humidity;BMP_temperature;BMP_pressure;BME280_temperature;BME280_humidity;BME280_pressure;Samples;Min_cycle;Max_cycle;Signal;HPM_P1;HPM_P2
2022/04/06 05:56:28;;;;;;;;;0.00;0.00;;;;;;;;1138948;28;89456;-54
2022/04/06 05:57:13;;;;;;;;;0.00;0.00;;;;;;;;1531115;28;83569;-51
2022/04/06 05:57:59;;;;;;;;;0.00;0.00;;;;;;;;1531487;28;83629;-50
2022/04/06 05:58:44;;;;;;;;;0.00;0.00;;;;;;;;1519033;28;83755;-48
2022/04/06 05:59:29;;;;;;;;;0.00;0.00;;;;;;;;1517620;28;83443;-51
2022/04/06 06:00:15;;;;;;;;;0.00;0.00;;;;;;;;1524621;28;83362;-47
2022/04/06 06:01:00;;;;;;;;;0.00;0.00;;;;;;;;1529922;28;83466;-48
2022/04/06 06:01:45;;;;;;;;;0.00;0.00;;;;;;;;1529968;28;83715;-47
2022/04/06 06:02:30;;;;;;;;;0.00;0.00;;;;;;;;1529934;28;83500;-48
2022/04/06 06:03:15;;;;;;;;;0.00;0.00;;;;;;;;1529863;28;83344;-49
2022/04/06 06:04:01;;;;;;;;;0.00;0.00;;;;;;;;1527789;28;83427;-48
2022/04/06 06:04:46;;;;;;;;;0.00;0.00;;;;;;;;1530160;28;84911;-48
2022/04/06 06:05:31;;;;;;;;;0.00;0.00;;;;;;;;1530019;28;83385;-49
2022/04/06 06:06:16;;;;;;;;;0.00;0.00;;;;;;;;1530006;28;83524;-49
2022/04/06 06:07:02;;;;;;;;;0.00;0.00;;;;;;;;1529838;28;83310;-51
2022/04/06 06:07:47;;;;;;;;;0.00;0.00;;;;;;;;1529861;28;83429;-52
2022/04/06 06:08:32;;;;;;;;;0.00;0.00;;;;;;;;1522732;28;83407;-50
2022/04/06 06:09:17;;;;;;;;;0.00;0.00;;;;;;;;1523645;28;83784;-51
2022/04/06 06:10:03;;;;;;;;;0.00;0.00;;;;;;;;1523612;28;83511;-51
2022/04/06 06:10:49;;;;;;;;;0.00;0.00;;;;;;;;1523504;28;83571;-52
2022/04/06 06:11:34;;;;;;;;;0.00;0.00;;;;;;;;1523199;28;84320;-48
2022/04/06 06:12:19;;;;;;;;;0.00;0.00;;;;;;;;1526213;28;83258;-47
2022/04/06 06:13:04;;;;;;;;;0.00;0.00;;;;;;;;1525240;28;83773;-50
2022/04/06 06:13:50;;;;;;;;;0.00;0.00;;;;;;;;1529835;28;83914;-48
2022/04/06 06:14:35;;;;;;;;;0.00;0.00;;;;;;;;1529892;28;83811;-48
2022/04/06 06:15:20;;;;;;;;;0.00;0.00;;;;;;;;1527987;28;83139;-47
2022/04/06 06:16:05;;;;;;;;;0.00;0.00;;;;;;;;1529807;28;83958;-50
2022/04/06 06:16:51;;;;;;;;;0.00;0.00;;;;;;;;1529832;28;83893;-50
2022/04/06 06:17:39;;;;;;;;;0.00;0.00;;;;;;;;1529830;28;83995;-49
2022/04/06 06:18:25;;;;;;;;;0.00;0.00;;;;;;;;1529972;28;83975;-51
2022/04/06 06:19:11;;;;;;;;;0.00;0.00;;;;;;;;1529154;28;84109;-50
2022/04/06 06:19:56;;;;;;;;;0.00;0.00;;;;;;;;1529763;28;83831;-48
2022/04/06 06:20:41;;;;;;;;;0.00;0.00;;;;;;;;1529702;28;83177;-50
2022/04/06 06:21:31;;;;;;;;;0.00;0.00;;;;;;;;1529914;28;83902;-50
2022/04/06 06:22:17;;;;;;;;;0.00;0.00;;;;;;;;1529455;28;85769;-49
2022/04/06 06:23:02;;;;;;;;;0.00;0.00;;;;;;;;1529825;28;83931;-50
2022/04/06 06:23:48;;;;;;;;;0.00;0.00;;;;;;;;1529738;28;83963;-49
2022/04/06 06:24:33;;;;;;;;;0.00;0.00;;;;;;;;1525006;28;84246;-51
2022/04/06 06:25:18;;;;;;;;;0.00;0.00;;;;;;;;1524564;28;83992;-48
2022/04/06 06:26:03;;;;;;;;;0.00;0.00;;;;;;;;1523563;28;83393;-48
2022/04/06 06:26:49;;;;;;;;;0.00;0.00;;;;;;;;1523802;28;83920;-49
2022/04/06 06:27:38;;;;;;;;;0.00;0.00;;;;;;;;1525028;28;83850;-48
2022/04/06 06:28:24;;;;;;;;;0.00;0.00;;;;;;;;1529856;28;83987;-53
2022/04/06 06:29:09;;;;;;;;;0.00;0.00;;;;;;;;1529808;28;84117;-49
2022/04/06 06:29:54;;;;;;;;;0.00;0.00;;;;;;;;1525619;28;83919;-51
2022/04/06 06:30:39;;;;;;;;;0.00;0.00;;;;;;;;1529469;28;84258;-50
2022/04/06 06:31:25;;;;;;;;;0.00;0.00;;;;;;;;1529854;28;83842;-48
2022/04/06 06:32:11;;;;;;;;;0.00;0.00;;;;;;;;1529675;28;83921;-48
2022/04/06 06:32:56;;;;;;;;;0.00;0.00;;;;;;;;1529004;28;83838;-53
2022/04/06 06:33:41;;;;;;;;;0.00;0.00;;;;;;;;1532556;28;83156;-49
2022/04/06 06:34:27;;;;;;;;;0.00;0.00;;;;;;;;1529824;28;83288;-48
2022/04/06 06:35:12;;;;;;;;;0.00;0.00;;;;;;;;1529770;28;83124;-50
2022/04/06 06:35:57;;;;;;;;;0.00;0.00;;;;;;;;1529801;28;83127;-50
2022/04/06 06:36:42;;;;;;;;;0.00;0.00;;;;;;;;1529832;28;83282;-48
2022/04/06 06:37:28;;;;;;;;;0.00;0.00;;;;;;;;1529097;28;86979;-47
2022/04/06 06:38:13;;;;;;;;;0.00;0.00;;;;;;;;1528999;28;86447;-48
2022/04/06 06:38:58;;;;;;;;;0.00;0.00;;;;;;;;1531072;28;87340;-51
2022/04/06 06:39:43;;;;;;;;;0.00;0.00;;;;;;;;1531994;28;87555;-47
2022/04/06 06:40:29;;;;;;;;;0.00;0.00;;;;;;;;1522639;28;88219;-46
2022/04/06 06:41:14;;;;;;;;;0.00;0.00;;;;;;;;1522681;28;88233;-48
2022/04/06 06:41:59;;;;;;;;;0.00;0.00;;;;;;;;1522888;28;87431;-49
2022/04/06 06:42:45;;;;;;;;;0.00;0.00;;;;;;;;1522882;28;87269;-47
2022/04/06 06:43:30;;;;;;;;;0.00;0.00;;;;;;;;1522866;28;87493;-48
2022/04/06 06:44:15;;;;;;;;;0.00;0.00;;;;;;;;1525463;28;87812;-49
2022/04/06 06:45:00;;;;;;;;;0.00;0.00;;;;;;;;1525736;28;87244;-48
2022/04/06 06:45:46;;;;;;;;;0.00;0.00;;;;;;;;1524001;28;87339;-51
2022/04/06 06:46:31;;;;;;;;;0.00;0.00;;;;;;;;1522995;28;87026;-47
2022/04/06 06:47:16;;;;;;;;;0.00;0.00;;;;;;;;1522797;28;87284;-46
2022/04/06 06:48:03;;;;;;;;;0.00;0.00;;;;;;;;1522576;28;87905;-47
2022/04/06 06:48:48;;;;;;;;;0.00;0.00;;;;;;;;1522757;28;88240;-49
2022/04/06 06:49:34;;;;;;;;;0.00;0.00;;;;;;;;1522934;28;87348;-46
2022/04/06 06:50:19;;;;;;;;;0.00;0.00;;;;;;;;1522843;28;87459;-45
2022/04/06 06:51:04;;;;;;;;;0.00;0.00;;;;;;;;1522688;28;86865;-49
2022/04/06 06:51:50;;;;;;;;;0.00;0.00;;;;;;;;1522794;28;87398;-50
2022/04/06 06:52:35;;;;;;;;;0.00;0.00;;;;;;;;1522698;28;86853;-52
2022/04/06 06:53:20;;;;;;;;;0.00;0.00;;;;;;;;1523611;28;87167;-48
2022/04/06 06:54:06;;;;;;;;;0.00;0.00;;;;;;;;1527608;28;86948;-51
2022/04/06 06:54:51;;;;;;;;;0.00;0.00;;;;;;;;1525704;28;86942;-52
2022/04/06 06:56:37;;;;;;;;;1.00;1.00;;;;;;;;1566622;27;83414;-66
2022/04/06 06:57:22;;;;;;;;;1.00;1.00;;;;;;;;1565979;27;83460;-69
2022/04/06 06:58:07;;;;;;;;;2.00;2.00;;;;;;;;1565722;27;83637;-71
2022/04/06 06:58:52;;;;;;;;;1.00;1.00;;;;;;;;1565861;27;83665;-70
2022/04/06 06:59:38;;;;;;;;;1.00;1.00;;;;;;;;1564391;27;83337;-70
2022/04/06 07:00:23;;;;;;;;;1.67;1.67;;;;;;;;1560580;27;83601;-70
2022/04/06 07:01:08;;;;;;;;;1.00;1.00;;;;;;;;1559523;28;83390;-68
2022/04/06 07:01:53;;;;;;;;;1.00;1.00;;;;;;;;1551430;27;84062;-69
2022/04/06 07:02:40;;;;;;;;;1.00;1.00;;;;;;;;1545171;28;83565;-69
2022/04/06 07:03:25;;;;;;;;;0.25;0.25;;;;;;;;1547150;28;83355;-69
2022/04/06 07:04:10;;;;;;;;;1.00;1.00;;;;;;;;1543224;28;83208;-69
2022/04/06 07:04:56;;;;;;;;;0.00;0.00;;;;;;;;1540980;28;83236;-71
2022/04/06 07:05:41;;;;;;;;;1.00;1.00;;;;;;;;1541039;28;83486;-71
2022/04/06 07:06:27;;;;;;;;;1.00;1.00;;;;;;;;1546030;28;83590;-71
2022/04/06 07:07:13;;;;;;;;;0.25;0.25;;;;;;;;1547141;28;83323;-71
2022/04/06 07:08:00;;;;;;;;;1.00;1.00;;;;;;;;1547136;28;83464;-71
2022/04/06 07:08:46;;;;;;;;;0.00;0.00;;;;;;;;1547162;28;83475;-71
2022/04/06 07:09:31;;;;;;;;;1.00;1.00;;;;;;;;1544578;28;83589;-71
2022/04/06 07:10:16;;;;;;;;;0.00;0.00;;;;;;;;1547112;28;83408;-71
2022/04/06 07:11:01;;;;;;;;;1.67;1.67;;;;;;;;1547175;28;83422;-71
2022/04/06 07:11:47;;;;;;;;;1.00;1.00;;;;;;;;1547159;28;83404;-70
2022/04/06 07:12:32;;;;;;;;;1.00;1.00;;;;;;;;1547052;28;83476;-70
2022/04/06 07:13:17;;;;;;;;;0.33;0.33;;;;;;;;1547109;28;83603;-70
2022/04/06 07:14:02;;;;;;;;;0.33;0.33;;;;;;;;1546487;28;83691;-71
2022/04/06 07:14:48;;;;;;;;;0.33;0.33;;;;;;;;1543682;28;83412;-71
2022/04/06 07:15:33;;;;;;;;;0.00;0.00;;;;;;;;1541172;28;83226;-70
2022/04/06 07:16:19;;;;;;;;;0.00;0.00;;;;;;;;1540896;28;83479;-70
2022/04/06 07:17:04;;;;;;;;;1.00;1.00;;;;;;;;1543127;28;83430;-70
2022/04/06 07:17:57;;;;;;;;;1.33;1.33;;;;;;;;1549924;28;83399;-70
2022/04/06 07:18:42;;;;;;;;;1.00;1.00;;;;;;;;1547105;28;83940;-70
2022/04/06 07:19:27;;;;;;;;;1.00;1.00;;;;;;;;1547100;28;83889;-70
2022/04/06 07:20:13;;;;;;;;;1.33;1.33;;;;;;;;1547112;28;83144;-70
2022/04/06 07:20:58;;;;;;;;;0.67;0.67;;;;;;;;1546384;28;83089;-70
2022/04/06 07:21:44;;;;;;;;;0.67;0.67;;;;;;;;1541008;28;83369;-70
2022/04/06 07:22:29;;;;;;;;;0.33;0.33;;;;;;;;1541063;28;83901;-70
2022/04/06 07:23:14;;;;;;;;;0.00;0.00;;;;;;;;1540900;28;83983;-70
2022/04/06 07:24:01;;;;;;;;;0.67;0.67;;;;;;;;1540763;28;83901;-70
2022/04/06 07:24:47;;;;;;;;;0.75;0.75;;;;;;;;1541170;28;83905;-70
2022/04/06 07:25:33;;;;;;;;;0.00;0.00;;;;;;;;1540980;28;83871;-71
2022/04/06 07:26:18;;;;;;;;;0.75;0.75;;;;;;;;1540826;28;83921;-71
2022/04/06 07:27:03;;;;;;;;;0.00;0.00;;;;;;;;1541794;28;83908;-71
2022/04/06 07:27:48;;;;;;;;;0.00;0.00;;;;;;;;1541000;28;84130;-70
2022/04/06 07:28:34;;;;;;;;;0.00;0.00;;;;;;;;1540965;28;83884;-70
2022/04/06 07:29:19;;;;;;;;;0.33;0.33;;;;;;;;1541124;28;83948;-70
2022/04/06 07:30:05;;;;;;;;;0.00;0.00;;;;;;;;1547097;28;84016;-70
2022/04/06 07:30:50;;;;;;;;;0.00;0.00;;;;;;;;1547037;28;84042;-70
2022/04/06 07:31:36;;;;;;;;;0.00;0.00;;;;;;;;1547153;28;83880;-70
2022/04/06 07:32:22;;;;;;;;;1.00;1.00;;;;;;;;1543730;28;83304;-70
2022/04/06 07:33:09;;;;;;;;;0.00;0.00;;;;;;;;1540899;28;84016;-70
2022/04/06 07:33:54;;;;;;;;;1.00;1.00;;;;;;;;1540657;28;83856;-70
2022/04/06 07:34:39;;;;;;;;;0.00;0.00;;;;;;;;1541055;28;83917;-70
2022/04/06 07:35:25;;;;;;;;;0.33;0.33;;;;;;;;1540958;28;83910;-70
2022/04/06 07:36:10;;;;;;;;;0.00;0.00;;;;;;;;1540793;28;83845;-70
2022/04/06 07:36:55;;;;;;;;;0.00;0.00;;;;;;;;1540829;28;83920;-70
2022/04/06 07:37:42;;;;;;;;;0.33;0.33;;;;;;;;1540962;28;84154;-70
2022/04/06 07:38:27;;;;;;;;;0.00;0.00;;;;;;;;1540655;28;84032;-70
2022/04/06 07:39:12;;;;;;;;;0.33;0.33;;;;;;;;1541640;28;83903;-70
2022/04/06 07:39:58;;;;;;;;;0.00;0.00;;;;;;;;1543270;28;83491;-70
2022/04/06 07:40:43;;;;;;;;;0.00;0.00;;;;;;;;1540991;28;83019;-70
2022/04/06 07:41:29;;;;;;;;;0.00;0.00;;;;;;;;1540915;28;83489;-70
2022/04/06 07:42:14;;;;;;;;;0.00;0.00;;;;;;;;1540928;28;83487;-70
2022/04/06 07:42:59;;;;;;;;;0.33;0.33;;;;;;;;1540891;28;83155;-70
2022/04/06 07:43:45;;;;;;;;;0.67;0.67;;;;;;;;1540924;28;83172;-70
2022/04/06 07:44:31;;;;;;;;;0.00;0.00;;;;;;;;1541767;28;83301;-70
2022/04/06 07:45:17;;;;;;;;;0.00;0.00;;;;;;;;1540680;28;83381;-68
2022/04/06 07:46:02;;;;;;;;;0.00;0.00;;;;;;;;1539768;28;83593;-67
2022/04/06 07:46:47;;;;;;;;;0.00;0.00;;;;;;;;1540677;28;83128;-67
2022/04/06 07:47:33;;;;;;;;;0.33;0.33;;;;;;;;1546794;28;83413;-68
2022/04/06 07:48:18;;;;;;;;;0.00;0.00;;;;;;;;1546844;28;83492;-68
2022/04/06 07:49:06;;;;;;;;;0.00;0.00;;;;;;;;1547045;28;83390;-69
2022/04/06 07:49:51;;;;;;;;;0.00;0.00;;;;;;;;1543953;28;83167;-69
2022/04/06 07:52:25;;;;;;;;;0.00;0.00;;;;;;;;1566732;27;83436;-82
2022/04/06 07:53:11;;;;;;;;;0.00;0.00;;;;;;;;1565999;27;85137;-91
2022/04/06 07:53:56;;;;;;;;;0.00;0.00;;;;;;;;1553774;27;83563;-89
2022/04/06 07:54:42;;;;;;;;;0.33;0.33;;;;;;;;1549864;28;85782;-92
2022/04/06 07:55:27;;;;;;;;;0.00;0.00;;;;;;;;1562155;27;84699;-91
2022/04/06 07:56:13;;;;;;;;;0.00;0.00;;;;;;;;1562262;27;83382;-90
2022/04/06 07:56:58;;;;;;;;;0.00;0.00;;;;;;;;1552596;28;84782;-89
2022/04/06 07:57:44;;;;;;;;;0.00;0.00;;;;;;;;1543359;28;86275;-88
2022/04/06 07:58:29;;;;;;;;;1.00;1.00;;;;;;;;1549119;28;85091;-90
2022/04/06 07:59:14;;;;;;;;;0.00;0.00;;;;;;;;1547410;28;84920;-89
2022/04/06 08:00:03;;;;;;;;;1.00;1.00;;;;;;;;1543071;28;87190;-90
2022/04/06 08:00:48;;;;;;;;;0.00;0.00;;;;;;;;1547594;28;83918;-91
2022/04/06 08:01:33;;;;;;;;;0.33;0.33;;;;;;;;1547738;28;86074;-87
2022/04/06 08:02:21;;;;;;;;;1.00;1.00;;;;;;;;1547199;28;84798;-89
2022/04/06 08:03:07;;;;;;;;;0.00;0.00;;;;;;;;1541038;28;84698;-88
2022/04/06 08:03:52;;;;;;;;;0.50;0.50;;;;;;;;1536856;28;84411;-90
2022/04/06 08:04:37;;;;;;;;;0.00;0.00;;;;;;;;1537202;28;84777;-93
2022/04/06 08:05:25;;;;;;;;;0.33;0.33;;;;;;;;1535467;28;85014;-89
2022/04/06 08:06:10;;;;;;;;;0.00;0.00;;;;;;;;1531282;28;86153;-90
2022/04/06 08:06:55;;;;;;;;;1.00;1.00;;;;;;;;1534882;28;85897;-87
2022/04/06 08:07:43;;;;;;;;;0.00;0.00;;;;;;;;1535109;28;86113;-88
2022/04/06 08:08:28;;;;;;;;;0.00;0.00;;;;;;;;1544618;28;85504;-90
2022/04/06 08:09:14;;;;;;;;;0.00;0.00;;;;;;;;1555417;28;85946;-89
2022/04/06 08:09:59;;;;;;;;;0.00;0.00;;;;;;;;1557482;28;85809;-89
2022/04/06 08:10:45;;;;;;;;;0.00;0.00;;;;;;;;1553355;28;84530;-89
2022/04/06 08:11:30;;;;;;;;;0.00;0.00;;;;;;;;1547154;28;84812;-89
2022/04/06 08:12:15;;;;;;;;;0.00;0.00;;;;;;;;1543003;28;85110;-89
2022/04/06 08:13:00;;;;;;;;;0.00;0.00;;;;;;;;1555320;28;84779;-89
2022/04/06 08:13:46;;;;;;;;;0.00;0.00;;;;;;;;1555955;28;85572;-91
2022/04/06 08:14:32;;;;;;;;;0.00;0.00;;;;;;;;1545080;28;84020;-89
2022/04/06 08:15:17;;;;;;;;;0.33;0.33;;;;;;;;1536759;28;88218;-89
2022/04/06 08:16:03;;;;;;;;;0.00;0.00;;;;;;;;1537048;28;85145;-90
2022/04/06 08:16:48;;;;;;;;;0.00;0.00;;;;;;;;1535058;28;85363;-89
2022/04/06 08:17:35;;;;;;;;;0.00;0.00;;;;;;;;1535219;28;86886;-89
2022/04/06 08:18:22;;;;;;;;;0.50;0.50;;;;;;;;1530784;28;85527;-90
2022/04/06 08:19:07;;;;;;;;;0.00;0.00;;;;;;;;1531104;28;85620;-90
2022/04/06 08:19:52;;;;;;;;;1.00;1.00;;;;;;;;1531235;28;86605;-88
2022/04/06 08:20:37;;;;;;;;;0.33;0.33;;;;;;;;1530857;28;86405;-92
2022/04/06 08:21:23;;;;;;;;;0.00;0.00;;;;;;;;1530795;28;85567;-90
2022/04/06 08:22:08;;;;;;;;;0.00;0.00;;;;;;;;1531541;28;85312;-90
2022/04/06 08:22:53;;;;;;;;;0.00;0.00;;;;;;;;1538675;28;83676;-91
2022/04/06 08:23:38;;;;;;;;;0.00;0.00;;;;;;;;1536686;28;84359;-91
2022/04/06 08:24:24;;;;;;;;;0.00;0.00;;;;;;;;1533357;28;84315;-89
2022/04/06 08:25:10;;;;;;;;;0.00;0.00;;;;;;;;1533265;28;84085;-88
2022/04/06 08:25:55;;;;;;;;;0.00;0.00;;;;;;;;1532758;28;83966;-89
2022/04/06 08:26:40;;;;;;;;;0.00;0.00;;;;;;;;1533327;28;86484;-90
2022/04/06 08:27:27;;;;;;;;;0.00;0.00;;;;;;;;1536843;28;85673;-89
2022/04/06 08:28:13;;;;;;;;;1.00;1.00;;;;;;;;1538772;28;83997;-89
2022/04/06 08:28:58;;;;;;;;;0.00;0.00;;;;;;;;1538006;28;87090;-79
2022/04/06 08:29:47;;;;;;;;;0.33;0.33;;;;;;;;1550731;28;83591;-89
2022/04/06 08:30:39;;;;;;;;;1.00;1.00;;;;;;;;1555223;28;84275;-91
2022/04/06 08:31:24;;;;;;;;;0.00;0.00;;;;;;;;1555380;27;86140;-91
2022/04/06 08:32:10;;;;;;;;;1.00;1.00;;;;;;;;1555740;27;84197;-91
2022/04/06 08:32:58;;;;;;;;;1.00;1.00;;;;;;;;1549584;28;85976;-90
2022/04/06 08:33:44;;;;;;;;;0.75;0.75;;;;;;;;1557902;27;84203;-91
2022/04/06 08:34:29;;;;;;;;;1.00;1.00;;;;;;;;1556133;27;84192;-90
2022/04/06 08:35:17;;;;;;;;;0.00;0.00;;;;;;;;1551973;28;85691;-90
2022/04/06 08:36:06;;;;;;;;;0.00;0.00;;;;;;;;1551866;28;82397;-91
2022/04/06 08:36:51;;;;;;;;;0.00;0.00;;;;;;;;1543532;28;82427;-92
2022/04/06 08:37:37;;;;;;;;;0.00;0.00;;;;;;;;1546148;28;82493;-90
2022/04/06 08:38:23;;;;;;;;;0.00;0.00;;;;;;;;1545977;28;82616;-92
2022/04/06 08:39:09;;;;;;;;;1.00;1.00;;;;;;;;1555504;28;82344;-91
2022/04/06 08:39:54;;;;;;;;;0.33;0.33;;;;;;;;1555012;27;82367;-91
2022/04/06 08:40:42;;;;;;;;;1.00;1.00;;;;;;;;1547141;28;83638;-90
2022/04/06 08:41:29;;;;;;;;;0.25;0.25;;;;;;;;1537270;28;83526;-91
2022/04/06 08:42:15;;;;;;;;;0.00;0.00;;;;;;;;1544468;28;83495;-92
2022/04/06 08:43:00;;;;;;;;;1.00;1.00;;;;;;;;1542564;28;82704;-91
2022/04/06 08:43:46;;;;;;;;;0.00;0.00;;;;;;;;1550565;28;83377;-92
2022/04/06 08:44:31;;;;;;;;;0.33;0.33;;;;;;;;1550100;28;83040;-90
2022/04/06 08:45:16;;;;;;;;;0.00;0.00;;;;;;;;1552183;28;83680;-91
2022/04/06 08:46:02;;;;;;;;;0.33;0.33;;;;;;;;1547448;28;83108;-91
2022/04/06 08:46:50;;;;;;;;;0.00;0.00;;;;;;;;1548419;28;83165;-91
2022/04/06 08:47:36;;;;;;;;;0.75;0.75;;;;;;;;1543417;28;83531;-91
2022/04/06 08:48:26;;;;;;;;;0.00;0.00;;;;;;;;1544854;28;83727;-90
2022/04/06 08:49:11;;;;;;;;;1.00;1.00;;;;;;;;1547351;28;83836;-90
2022/04/06 08:49:58;;;;;;;;;0.00;0.00;;;;;;;;1543960;28;83850;-91
2022/04/06 08:50:45;;;;;;;;;1.00;1.00;;;;;;;;1539525;28;83175;-90
2022/04/06 08:51:33;;;;;;;;;0.00;0.00;;;;;;;;1543534;28;83481;-91
2022/04/06 08:52:18;;;;;;;;;0.00;0.00;;;;;;;;1547308;28;83499;-91
2022/04/06 08:53:05;;;;;;;;;1.00;1.00;;;;;;;;1539798;28;84756;-92
2022/04/06 08:53:50;;;;;;;;;0.00;0.00;;;;;;;;1537502;28;83637;-91
2022/04/06 08:54:35;;;;;;;;;1.00;1.00;;;;;;;;1537646;28;82827;-91
2022/04/06 08:55:21;;;;;;;;;1.00;1.00;;;;;;;;1536966;28;83168;-92
2022/04/06 08:56:06;;;;;;;;;0.00;0.00;;;;;;;;1543321;28;83403;-91
2022/04/06 08:56:52;;;;;;;;;0.00;0.00;;;;;;;;1554173;28;83409;-91
2022/04/06 08:57:37;;;;;;;;;0.00;0.00;;;;;;;;1551850;28;83412;-92
2022/04/06 08:58:22;;;;;;;;;2.00;0.33;;;;;;;;1544989;28;83845;-92
2022/04/06 08:59:08;;;;;;;;;0.67;0.67;;;;;;;;1542887;28;84549;-91
2022/04/06 08:59:54;;;;;;;;;1.00;1.00;;;;;;;;1546861;28;86587;-91
2022/04/06 09:00:39;;;;;;;;;1.00;1.00;;;;;;;;1540744;28;83662;-91
2022/04/06 09:01:25;;;;;;;;;0.33;0.33;;;;;;;;1536850;28;84491;-92
2022/04/06 09:02:11;;;;;;;;;0.00;0.00;;;;;;;;1540982;28;84538;-92
2022/04/06 09:02:57;;;;;;;;;0.50;0.50;;;;;;;;1543143;28;85278;-92
2022/04/06 09:03:42;;;;;;;;;1.00;1.00;;;;;;;;1543823;28;85882;-92
2022/04/06 09:04:31;;;;;;;;;1.00;1.00;;;;;;;;1536600;28;86293;-91
2022/04/06 09:05:20;;;;;;;;;0.00;0.00;;;;;;;;1533052;28;85039;-90
2022/04/06 09:06:06;;;;;;;;;0.50;0.50;;;;;;;;1533519;28;85173;-91
2022/04/06 09:06:51;;;;;;;;;0.75;0.75;;;;;;;;1536460;28;85618;-91
2022/04/06 09:07:38;;;;;;;;;1.00;1.00;;;;;;;;1536641;28;84805;-91
2022/04/06 09:08:33;;;;;;;;;1.00;1.00;;;;;;;;1533076;28;83757;-91
2022/04/06 09:09:21;;;;;;;;;0.75;0.75;;;;;;;;1534567;28;84734;-91
2022/04/06 09:10:08;;;;;;;;;0.00;0.00;;;;;;;;1535384;28;85289;-91
2022/04/06 09:11:05;;;;;;;;;1.00;1.00;;;;;;;;1545131;28;85049;-91
2022/04/06 09:11:50;;;;;;;;;2.00;2.00;;;;;;;;1542388;28;85074;-91
2022/04/06 09:12:36;;;;;;;;;1.00;1.00;;;;;;;;1539779;28;86950;-91
2022/04/06 09:13:24;;;;;;;;;1.00;1.00;;;;;;;;1533781;28;84977;-91
2022/04/06 09:14:10;;;;;;;;;1.00;1.00;;;;;;;;1538723;28;83717;-91
2022/04/06 09:15:06;;;;;;;;;0.50;0.50;;;;;;;;1548696;28;83597;-91
2022/04/06 09:15:58;;;;;;;;;1.00;1.00;;;;;;;;1545899;28;85131;-91
2022/04/06 09:16:44;;;;;;;;;1.00;1.00;;;;;;;;1537788;28;86102;-91
2022/04/06 09:17:29;;;;;;;;;0.00;0.00;;;;;;;;1539573;28;86259;-91
2022/04/06 09:18:15;;;;;;;;;1.00;1.00;;;;;;;;1548921;28;85788;-92
2022/04/06 09:19:07;;;;;;;;;0.00;0.00;;;;;;;;1548805;28;84486;-91
2022/04/06 09:19:53;;;;;;;;;0.00;0.00;;;;;;;;1542144;28;84019;-91
2022/04/06 09:20:38;;;;;;;;;0.00;0.00;;;;;;;;1533587;28;85496;-91
2022/04/06 09:21:24;;;;;;;;;0.00;0.00;;;;;;;;1538696;28;84379;-92
2022/04/06 09:22:09;;;;;;;;;1.00;1.00;;;;;;;;1536069;28;84389;-91
2022/04/06 09:22:54;;;;;;;;;0.00;0.00;;;;;;;;1534773;28;85177;-92
2022/04/06 09:23:40;;;;;;;;;0.33;0.33;;;;;;;;1536368;28;84363;-92
2022/04/06 09:24:26;;;;;;;;;0.00;0.00;;;;;;;;1536317;28;85693;-92
2022/04/06 09:25:11;;;;;;;;;0.00;0.00;;;;;;;;1534632;28;84111;-91
2022/04/06 09:26:04;;;;;;;;;0.00;0.00;;;;;;;;1538519;28;85823;-92
2022/04/06 09:26:57;;;;;;;;;0.25;0.25;;;;;;;;1542959;28;83365;-92
2022/04/06 09:27:42;;;;;;;;;0.00;0.00;;;;;;;;1541130;28;84564;-91
2022/04/06 09:28:27;;;;;;;;;0.00;0.00;;;;;;;;1540845;28;84361;-92
2022/04/06 09:29:13;;;;;;;;;0.00;0.00;;;;;;;;1537342;28;83981;-92
2022/04/06 09:29:59;;;;;;;;;1.00;1.00;;;;;;;;1537635;28;85044;-90
2022/04/06 09:30:45;;;;;;;;;0.33;0.33;;;;;;;;1540522;28;85393;-90
2022/04/06 09:31:36;;;;;;;;;0.00;0.00;;;;;;;;1538774;28;84440;-90
2022/04/06 09:32:21;;;;;;;;;0.00;0.00;;;;;;;;1538400;28;85452;-89
2022/04/06 09:33:11;;;;;;;;;0.00;0.00;;;;;;;;1546238;28;85270;-91
2022/04/06 09:33:58;;;;;;;;;0.00;0.00;;;;;;;;1541696;28;85483;-91
2022/04/06 09:34:46;;;;;;;;;0.00;0.00;;;;;;;;1539420;28;86457;-91
2022/04/06 09:35:32;;;;;;;;;0.00;0.00;;;;;;;;1533863;28;85330;-91
2022/04/06 09:36:21;;;;;;;;;0.00;0.00;;;;;;;;1532615;28;85033;-92
2022/04/06 09:37:41;;;;;;;;;0.00;0.00;;;;;;;;1533153;28;85575;-91
2022/04/06 09:38:31;;;;;;;;;0.00;0.00;;;;;;;;1518684;28;85286;-92
2022/04/06 09:39:16;;;;;;;;;0.00;0.00;;;;;;;;1524506;28;85389;-93
2022/04/06 09:40:08;;;;;;;;;0.00;0.00;;;;;;;;1523852;28;86758;-92
2022/04/06 09:41:05;;;;;;;;;0.00;0.00;;;;;;;;1521205;28;85749;-91
2022/04/06 09:42:00;;;;;;;;;1.00;1.00;;;;;;;;1512371;28;87077;-92
2022/04/06 09:42:51;;;;;;;;;0.00;0.00;;;;;;;;1516095;28;84473;-91
2022/04/06 09:43:36;;;;;;;;;0.00;0.00;;;;;;;;1518851;28;84968;-91
2022/04/06 09:47:39;;;;;;;;;0.00;0.00;;;;;;;;1530583;28;83234;-92
2022/04/06 09:48:24;;;;;;;;;0.00;0.00;;;;;;;;1524053;28;83620;-93
2022/04/06 09:49:18;;;;;;;;;0.00;0.00;;;;;;;;1524309;28;83663;-94
2022/04/06 09:50:09;;;;;;;;;0.00;0.00;;;;;;;;1527538;28;84816;-92
2022/04/06 09:50:56;;;;;;;;;0.00;0.00;;;;;;;;1526900;28;85279;-92
2022/04/06 09:51:45;;;;;;;;;0.00;0.00;;;;;;;;1527847;28;83800;-93
2022/04/06 09:52:31;;;;;;;;;0.00;0.00;;;;;;;;1525589;28;83585;-91
2022/04/06 09:53:16;;;;;;;;;0.00;0.00;;;;;;;;1518060;28;85683;-93
2022/04/06 09:54:05;;;;;;;;;0.00;0.00;;;;;;;;1519860;28;85401;-93
2022/04/06 09:54:51;;;;;;;;;0.00;0.00;;;;;;;;1520979;28;85709;-90
2022/04/06 09:55:37;;;;;;;;;0.00;0.00;;;;;;;;1524674;28;85342;-91
2022/04/06 09:56:23;;;;;;;;;0.00;0.00;;;;;;;;1520275;28;82965;-92
2022/04/06 09:57:09;;;;;;;;;0.00;0.00;;;;;;;;1518278;28;84761;-91
2022/04/06 09:57:55;;;;;;;;;0.00;0.00;;;;;;;;1520201;28;83822;-92
2022/04/06 09:58:41;;;;;;;;;0.00;0.00;;;;;;;;1524495;28;84054;-92
2022/04/06 09:59:28;;;;;;;;;0.00;0.00;;;;;;;;1529076;28;84197;-91
2022/04/06 10:00:18;;;;;;;;;0.00;0.00;;;;;;;;1525162;28;83222;-91
2022/04/06 10:01:03;;;;;;;;;0.00;0.00;;;;;;;;1529502;28;82911;-92
2022/04/06 10:01:48;;;;;;;;;0.00;0.00;;;;;;;;1532121;28;83641;-91
2022/04/06 10:02:35;;;;;;;;;0.00;0.00;;;;;;;;1529011;28;83745;-92
2022/04/06 10:03:20;;;;;;;;;0.00;0.00;;;;;;;;1530269;28;83529;-91
2022/04/06 10:04:07;;;;;;;;;0.00;0.00;;;;;;;;1531616;28;84086;-91
2022/04/06 10:04:52;;;;;;;;;0.00;0.00;;;;;;;;1530014;28;85137;-91
2022/04/06 10:05:51;;;;;;;;;0.00;0.00;;;;;;;;1525176;28;82434;-90
2022/04/06 10:06:39;;;;;;;;;0.00;0.00;;;;;;;;1523738;28;82870;-92
2022/04/06 10:07:24;;;;;;;;;0.00;0.00;;;;;;;;1536084;28;85219;-92
2022/04/06 10:08:11;;;;;;;;;0.00;0.00;;;;;;;;1541209;28;85060;-92
2022/04/06 10:08:56;;;;;;;;;0.00;0.00;;;;;;;;1539569;28;84779;-92
2022/04/06 10:09:42;;;;;;;;;0.00;0.00;;;;;;;;1535437;28;85077;-92
2022/04/06 10:10:28;;;;;;;;;0.00;0.00;;;;;;;;1534786;28;84934;-93
2022/04/06 10:11:14;;;;;;;;;0.00;0.00;;;;;;;;1526346;28;85181;-93
2022/04/06 10:11:59;;;;;;;;;0.00;0.00;;;;;;;;1523999;28;86614;-93
2022/04/06 10:12:47;;;;;;;;;0.00;0.00;;;;;;;;1524320;28;86430;-93
2022/04/06 10:13:32;;;;;;;;;0.00;0.00;;;;;;;;1531126;28;85719;-93
2022/04/06 10:14:17;;;;;;;;;0.00;0.00;;;;;;;;1533741;28;85637;-93
2022/04/06 10:15:05;;;;;;;;;0.00;0.00;;;;;;;;1532024;28;85981;-93
2022/04/06 10:15:51;;;;;;;;;0.00;0.00;;;;;;;;1537668;28;83945;-92
2022/04/06 10:16:38;;;;;;;;;0.00;0.00;;;;;;;;1536468;28;86354;-93
2022/04/06 10:17:24;;;;;;;;;0.00;0.00;;;;;;;;1532666;28;83944;-93
2022/04/06 10:18:09;;;;;;;;;0.00;0.00;;;;;;;;1532489;28;86152;-90
2022/04/06 10:19:05;;;;;;;;;0.00;0.00;;;;;;;;1534077;28;84549;-95
2022/04/06 10:19:56;;;;;;;;;0.00;0.00;;;;;;;;1535312;28;83750;-93
2022/04/06 10:20:46;;;;;;;;;0.00;0.00;;;;;;;;1541264;28;83749;-92
2022/04/06 10:22:00;;;;;;;;;0.00;0.00;;;;;;;;1540417;28;84890;-93
2022/04/06 10:23:02;;;;;;;;;0.00;0.00;;;;;;;;1537041;28;83699;-90
2022/04/06 10:23:47;;;;;;;;;0.00;0.00;;;;;;;;1537013;28;85197;-92
2022/04/06 10:24:32;;;;;;;;;0.00;0.00;;;;;;;;1540596;28;85036;-91
2022/04/06 10:25:24;;;;;;;;;0.00;0.00;;;;;;;;1539359;28;84814;-92
2022/04/06 10:26:11;;;;;;;;;0.00;0.00;;;;;;;;1549014;28;85264;-92
2022/04/06 10:27:15;;;;;;;;;0.00;0.00;;;;;;;;1552932;28;84571;-94
2022/04/06 10:28:07;;;;;;;;;0.00;0.00;;;;;;;;1551084;28;84105;-91
2022/04/06 10:28:52;;;;;;;;;0.00;0.00;;;;;;;;1555947;28;85291;-95
2022/04/06 10:29:56;;;;;;;;;0.00;0.00;;;;;;;;1550315;28;84012;-93
2022/04/06 10:31:01;;;;;;;;;0.00;0.00;;;;;;;;1548434;28;84551;-90
2022/04/06 10:31:46;;;;;;;;;0.00;0.00;;;;;;;;1537956;28;85353;-94
2022/04/06 10:32:37;;;;;;;;;0.00;0.00;;;;;;;;1538015;28;84969;-93
2022/04/06 10:33:23;;;;;;;;;0.00;0.00;;;;;;;;1539777;28;85698;-92
2022/04/06 10:34:17;;;;;;;;;0.00;0.00;;;;;;;;1543563;28;85524;-91
2022/04/06 10:35:31;;;;;;;;;0.00;0.00;;;;;;;;1548522;28;84362;-90
2022/04/06 10:36:16;;;;;;;;;0.00;0.00;;;;;;;;1546176;28;84460;-88
2022/04/06 10:37:03;;;;;;;;;0.00;0.00;;;;;;;;1536484;28;85310;-90
2022/04/06 10:37:58;;;;;;;;;0.00;0.00;;;;;;;;1532699;28;85415;-91
2022/04/06 10:39:03;;;;;;;;;0.00;0.00;;;;;;;;1536058;28;85564;-93
2022/04/06 10:39:54;;;;;;;;;0.00;0.00;;;;;;;;1545634;28;84538;-92
2022/04/06 10:40:45;;;;;;;;;0.00;0.00;;;;;;;;1543622;28;86818;-92
2022/04/06 10:41:30;;;;;;;;;0.25;0.25;;;;;;;;1543809;28;84490;-90
2022/04/06 10:42:29;;;;;;;;;0.00;0.00;;;;;;;;1543215;28;84044;-90
2022/04/06 10:43:33;;;;;;;;;0.00;0.00;;;;;;;;1542354;28;83565;-90